Time;durP1;ratioP1;P1;durP2;ratioP2;P2;SDS_P1;SDS_P2;PMS_P1;PMS_P2;Temp;Humidity;BMP_temperature;BMP_pressure;BME280_temperature;BME280_humidity;BME280_pressure;Samples;Min_cycle;Max_cycle;Signal;HPM_P1;HPM_P2
2022/10/21 00:00:20;;;;;;;14.33;11.43;;;;;;;13.21;100.00;100803.78;5093872;28;20035;-35
2022/10/21 00:02:46;;;;;;;13.32;11.18;;;;;;;13.20;100.00;100798.59;5093624;28;20020;-35
2022/10/21 00:05:11;;;;;;;13.70;10.93;;;;;;;13.14;100.00;100795.00;5093549;28;20063;-35
2022/10/21 00:07:37;;;;;;;16.85;11.82;;;;;;;13.17;100.00;100805.34;5093469;28;20037;-35
2022/10/21 00:10:03;;;;;;;15.73;12.35;;;;;;;13.08;100.00;100783.25;5094041;28;20027;-35
2022/10/21 00:12:29;;;;;;;22.10;12.65;;;;;;;13.14;100.00;100792.28;5093647;28;20043;-35
2022/10/21 00:14:55;;;;;;;15.80;11.65;;;;;;;13.11;100.00;100782.72;5093025;28;20089;-35
2022/10/21 00:17:20;;;;;;;13.40;11.83;;;;;;;13.14;100.00;100781.41;5093917;28;20032;-35
2022/10/21 00:19:45;;;;;;;15.90;12.63;;;;;;;13.02;100.00;100770.63;5093843;28;20322;-35
2022/10/21 00:22:11;;;;;;;14.83;12.73;;;;;;;13.15;100.00;100794.72;5094085;28;20077;-35
2022/10/21 00:24:36;;;;;;;13.97;11.27;;;;;;;13.13;100.00;100787.94;5093543;28;20339;-35
2022/10/21 00:27:01;;;;;;;16.20;11.77;;;;;;;13.12;100.00;100781.66;5093261;28;20020;-35
2022/10/21 00:29:27;;;;;;;13.00;11.48;;;;;;;13.13;100.00;100779.78;5093171;28;20414;-35
2022/10/21 00:31:53;;;;;;;12.48;10.88;;;;;;;13.09;100.00;100770.50;5093665;28;20032;-35
2022/10/21 00:34:19;;;;;;;15.05;11.45;;;;;;;13.07;100.00;100768.00;5091765;28;20024;-35
2022/10/21 00:36:44;;;;;;;17.83;11.35;;;;;;;12.99;100.00;100759.47;5093660;28;20097;-35
2022/10/21 00:39:10;;;;;;;15.15;11.73;;;;;;;13.00;100.00;100763.84;5093101;28;20457;-35
2022/10/21 00:41:35;;;;;;;14.63;11.60;;;;;;;13.02;100.00;100776.06;5093346;28;20032;-35
2022/10/21 00:44:09;;;;;;;14.03;10.73;;;;;;;13.00;100.00;100764.66;5093664;28;20039;-35
2022/10/21 00:46:43;;;;;;;16.45;12.13;;;;;;;13.00;100.00;100775.50;5093145;28;20391;-35
2022/10/21 00:49:19;;;;;;;16.08;12.32;;;;;;;12.97;100.00;100770.56;5092696;28;20038;-35
2022/10/21 00:51:47;;;;;;;;;;;;;;;13.02;100.00;100776.06;5092978;28;20154;-35
2022/10/21 00:54:12;;;;;;;;;;;;;;;13.03;100.00;100774.16;5093392;28;19908;-35
2022/10/21 00:56:42;;;;;;;14.02;11.85;;;;;;;12.92;100.00;100765.06;5093047;28;19911;-35
2022/10/21 00:59:07;;;;;;;14.13;12.02;;;;;;;12.98;100.00;100772.22;5093907;28;20099;-35
2022/10/21 01:01:33;;;;;;;13.93;11.83;;;;;;;13.00;100.00;100764.66;5092563;28;20065;-35
2022/10/21 01:04:00;;;;;;;15.57;11.63;;;;;;;12.92;100.00;100758.81;5093142;28;20032;-35
2022/10/21 01:06:26;;;;;;;16.48;12.48;;;;;;;12.95;100.00;100759.16;5092807;28;20085;-35
2022/10/21 01:08:53;;;;;;;13.40;12.10;;;;;;;12.98;100.00;100750.53;5092635;28;20036;-35
2022/10/21 01:11:20;;;;;;;18.15;12.55;;;;;;;12.99;100.00;100751.34;5092567;28;20060;-35
2022/10/21 01:14:06;;;;;;;15.40;12.63;;;;;;;12.96;100.00;100744.50;5092857;28;20104;-35
2022/10/21 01:16:47;;;;;;;13.80;12.27;;;;;;;12.93;100.00;100747.69;5092566;28;20544;-35
2022/10/21 01:19:33;;;;;;;15.10;11.70;;;;;;;12.90;100.00;100745.50;5092948;28;20463;-35
2022/10/21 01:22:16;;;;;;;14.38;11.75;;;;;;;12.88;100.00;100737.63;5093504;28;20040;-35
2022/10/21 01:25:27;;;;;;;16.30;12.00;;;;;;;12.86;100.00;100737.03;5092697;28;20115;-35
2022/10/21 01:28:23;;;;;;;14.35;11.15;;;;;;;12.85;100.00;100727.25;5070547;28;20401;-35
2022/10/21 01:30:57;;;;;;;15.88;11.85;;;;;;;12.80;100.00;100718.22;5070108;28;20534;-35
2022/10/21 01:33:50;;;;;;;17.13;11.27;;;;;;;12.76;100.00;100712.47;5070226;28;20462;-35
2022/10/21 01:36:40;;;;;;;13.20;10.82;;;;;;;12.77;100.00;100716.81;5070700;28;20028;-35
2022/10/21 01:39:26;;;;;;;16.50;11.85;;;;;;;12.75;100.00;100716.25;5069925;28;20052;-35
2022/10/21 01:42:00;;;;;;;15.13;11.68;;;;;;;12.68;100.00;100706.63;5070466;28;20025;-35
2022/10/21 01:44:34;;;;;;;14.30;10.80;;;;;;;12.70;100.00;100701.78;5069791;28;20565;-35
2022/10/21 01:47:08;;;;;;;12.13;10.70;;;;;;;12.67;100.00;100707.69;5069973;28;20494;-35
2022/10/21 01:49:39;;;;;;;14.52;11.35;;;;;;;12.62;100.00;100703.00;5070419;28;20064;-35
2022/10/21 01:52:06;;;;;;;14.05;10.52;;;;;;;12.59;100.00;100688.06;5070070;28;20068;-35
2022/10/21 01:54:37;;;;;;;16.48;10.82;;;;;;;12.58;100.00;100688.28;5070272;28;20032;-35
2022/10/21 01:57:04;;;;;;;15.30;11.48;;;;;;;12.49;100.00;100676.22;5073075;28;20044;-35
2022/10/21 01:59:31;;;;;;;18.52;11.13;;;;;;;12.49;100.00;100681.66;5073473;28;20120;-35
2022/10/21 02:02:00;;;;;;;15.90;11.07;;;;;;;12.50;100.00;100691.44;5073314;28;20028;-35
2022/10/21 02:04:28;;;;;;;15.48;11.55;;;;;;;12.51;100.00;100680.34;5082987;28;20051;-35
2022/10/21 02:06:53;;;;;;;18.42;11.60;;;;;;;12.48;100.00;100674.59;5095978;28;20028;-35
2022/10/21 02:09:19;;;;;;;15.68;11.52;;;;;;;12.49;100.00;100681.66;5095943;28;20039;-35
2022/10/21 02:11:49;;;;;;;14.80;11.33;;;;;;;12.45;100.00;100675.09;5095940;28;20161;-35
2022/10/21 02:14:22;;;;;;;15.15;11.48;;;;;;;12.39;100.00;100668.75;5096249;28;20201;-35
2022/10/21 02:16:49;;;;;;;13.95;11.52;;;;;;;12.36;100.00;100663.84;5096211;28;20032;-35
2022/10/21 02:19:17;;;;;;;13.05;10.50;;;;;;;12.37;100.00;100673.59;5095383;28;20039;-35
2022/10/21 02:21:45;;;;;;;15.23;12.10;;;;;;;12.38;100.00;100675.25;5095545;28;20176;-35
2022/10/21 02:24:29;;;;;;;14.38;11.43;;;;;;;12.36;100.00;100666.53;5095796;28;20122;-35
2022/10/21 02:26:55;;;;;;;14.32;12.07;;;;;;;12.29;100.00;100663.16;5095250;28;20447;-35
2022/10/21 02:29:28;;;;;;;11.68;10.43;;;;;;;12.23;100.00;100650.59;5094367;28;20064;-35
2022/10/21 02:32:18;;;;;;;12.50;11.20;;;;;;;12.22;100.00;100654.38;5095921;28;20035;-35
2022/10/21 02:35:00;;;;;;;12.38;10.25;;;;;;;12.23;100.00;100659.56;5095342;28;20024;-35
2022/10/21 02:37:30;;;;;;;15.52;11.45;;;;;;;12.21;100.00;100659.00;5095470;28;20028;-35
2022/10/21 02:40:05;;;;;;;15.50;10.68;;;;;;;12.16;100.00;100667.03;5095786;28;20074;-35
2022/10/21 02:42:36;;;;;;;14.10;11.45;;;;;;;12.13;100.00;100651.25;5095928;28;20035;-35
2022/10/21 02:45:03;;;;;;;14.77;10.85;;;;;;;12.19;100.00;100663.00;5095479;28;20039;-35
2022/10/21 02:47:28;;;;;;;14.65;11.80;;;;;;;12.09;100.00;100650.91;5095254;28;20035;-35
2022/10/21 02:49:54;;;;;;;17.35;11.57;;;;;;;12.16;100.00;100661.63;5094707;28;20034;-35
2022/10/21 02:52:20;;;;;;;13.48;10.82;;;;;;;12.10;100.00;100666.13;5095545;28;20028;-35
2022/10/21 02:54:45;;;;;;;15.90;11.30;;;;;;;12.16;100.00;100668.94;5094653;28;20020;-35
2022/10/21 02:57:10;;;;;;;13.77;11.10;;;;;;;12.03;100.00;100646.47;5095190;28;20024;-35
2022/10/21 02:59:36;;;;;;;13.80;10.30;;;;;;;12.10;100.00;100655.28;5095013;28;20483;-35
2022/10/21 03:02:01;;;;;;;11.73;10.50;;;;;;;12.09;100.00;100655.53;5095100;28;20611;-35
2022/10/21 03:04:26;;;;;;;14.02;10.27;;;;;;;12.08;100.00;100643.84;5094794;28;20051;-35
2022/10/21 03:06:52;;;;;;;12.33;10.70;;;;;;;12.09;100.00;100644.69;5093995;28;20107;-35
2022/10/21 03:09:17;;;;;;;14.10;9.93;;;;;;;12.03;100.00;100634.81;5094937;28;20250;-35
2022/10/21 03:11:42;;;;;;;12.90;10.65;;;;;;;12.04;100.00;100642.69;5094548;28;20088;-35
2022/10/21 03:14:07;;;;;;;16.20;10.70;;;;;;;12.06;100.00;100643.28;5094914;28;20027;-35
2022/10/21 03:16:33;;;;;;;13.17;10.30;;;;;;;11.95;100.00;100633.31;5094793;28;20360;-35
2022/10/21 03:18:58;;;;;;;13.37;10.77;;;;;;;12.06;100.00;100642.47;5094198;28;20500;-35
2022/10/21 03:21:23;;;;;;;16.13;10.70;;;;;;;12.00;100.00;100630.69;5094485;28;20130;-35
2022/10/21 03:23:49;;;;;;;13.13;10.27;;;;;;;12.04;100.00;100639.16;5094659;28;20070;-35
2022/10/21 03:26:14;;;;;;;16.47;9.67;;;;;;;11.99;100.00;100634.50;5094657;28;20032;-35
2022/10/21 03:28:39;;;;;;;12.00;10.00;;;;;;;11.96;100.00;100634.19;5094866;28;20032;-35
2022/10/21 03:31:05;;;;;;;13.57;9.75;;;;;;;11.97;100.00;100642.06;5094028;28;20067;-35
2022/10/21 03:33:30;;;;;;;15.33;10.03;;;;;;;12.00;100.00;100640.72;5094101;28;20484;-35
2022/10/21 03:35:55;;;;;;;11.73;9.97;;;;;;;12.03;100.00;100643.78;5094178;28;20137;-35
2022/10/21 03:38:20;;;;;;;15.80;10.07;;;;;;;11.93;100.00;100632.75;5094600;28;20062;-35
2022/10/21 03:40:46;;;;;;;10.60;8.67;;;;;;;11.98;100.00;100651.81;5094321;28;20020;-35
2022/10/21 03:43:11;;;;;;;13.50;9.83;;;;;;;11.97;100.00;100649.38;5094312;28;20083;-35
2022/10/21 03:45:36;;;;;;;12.93;9.50;;;;;;;11.93;100.00;100650.91;5093988;28;20058;-35
2022/10/21 03:48:02;;;;;;;11.93;9.67;;;;;;;11.94;100.00;100647.94;5094274;28;20024;-35
2022/10/21 03:50:27;;;;;;;11.82;9.32;;;;;;;11.94;100.00;100645.25;5093913;28;20039;-35
2022/10/21 03:52:53;;;;;;;12.97;10.13;;;;;;;11.94;100.00;100641.72;5094397;28;20032;-35
2022/10/21 03:55:19;;;;;;;12.73;9.88;;;;;;;11.90;100.00;100633.25;5093513;28;20119;-35
2022/10/21 03:57:46;;;;;;;10.43;7.95;;;;;;;11.74;100.00;100615.06;5092159;28;20052;-35
2022/10/21 04:00:12;;;;;;;13.98;9.73;;;;;;;11.84;100.00;100640.47;5093389;28;20036;-35
2022/10/21 04:02:37;;;;;;;;;;;;;;;11.90;100.00;100633.25;5094113;28;20040;-35
2022/10/21 04:05:02;;;;;;;10.93;9.20;;;;;;;11.79;100.00;100617.84;5093651;28;20390;-35
2022/10/21 04:07:28;;;;;;;11.68;9.18;;;;;;;11.83;100.00;100638.81;5093841;28;20028;-35
2022/10/21 04:09:53;;;;;;;11.73;8.47;;;;;;;11.75;100.00;100625.63;5093872;28;20123;-35
2022/10/21 04:12:21;;;;;;;13.13;9.07;;;;;;;11.79;100.00;100636.81;5094132;28;20038;-35
2022/10/21 04:14:46;;;;;;;9.55;8.57;;;;;;;11.78;100.00;100643.31;5093688;28;20043;-35
2022/10/21 04:17:11;;;;;;;10.87;8.40;;;;;;;11.70;100.00;100622.03;5094123;28;20036;-35
2022/10/21 04:19:36;;;;;;;7.90;6.77;;;;;;;11.74;100.00;100642.16;5091079;28;20442;-35
2022/10/21 04:22:02;;;;;;;12.07;8.53;;;;;;;11.65;100.00;100649.84;5093769;28;20103;-35
2022/10/21 04:24:27;;;;;;;12.40;8.27;;;;;;;11.62;100.00;100644.09;5093126;28;20114;-35
2022/10/21 04:26:53;;;;;;;10.07;8.63;;;;;;;11.64;100.00;100644.66;5093731;28;20028;-35
2022/10/21 04:29:18;;;;;;;10.90;8.00;;;;;;;11.57;100.00;100642.94;5093866;28;20039;-35
2022/10/21 04:31:43;;;;;;;13.30;8.37;;;;;;;11.56;100.00;100632.34;5093348;28;20051;-35
2022/10/21 04:34:09;;;;;;;10.37;7.43;;;;;;;11.41;100.00;100630.16;5092978;28;20267;-35
2022/10/21 04:36:34;;;;;;;10.60;7.30;;;;;;;11.40;100.00;100625.81;5092943;28;20028;-35
2022/10/21 04:39:00;;;;;;;7.83;6.80;;;;;;;11.47;100.00;100631.91;5093844;28;20032;-35
2022/10/21 04:41:25;;;;;;;12.67;7.77;;;;;;;11.46;100.00;100640.25;5093142;28;20039;-35
2022/10/21 04:43:50;;;;;;;11.57;7.50;;;;;;;11.41;100.00;100643.69;5093483;28;20016;-35
2022/10/21 04:46:16;;;;;;;10.53;6.87;;;;;;;11.43;100.00;100640.78;5093147;28;20028;-35
2022/10/21 04:48:42;;;;;;;11.27;7.90;;;;;;;11.49;100.00;100646.03;5093858;28;20032;-34
2022/10/21 04:51:07;;;;;;;;;;;;;;;11.53;100.00;100643.66;5093894;28;20356;-35
2022/10/21 04:53:33;;;;;;;9.88;6.72;;;;;;;11.35;100.00;100633.84;5093342;28;19995;-35
2022/10/21 04:55:58;;;;;;;11.25;7.47;;;;;;;11.50;100.00;100647.66;5093266;28;20139;-35
2022/10/21 04:58:23;;;;;;;9.97;7.40;;;;;;;11.45;100.00;100639.44;5093605;28;20142;-35
2022/10/21 05:00:50;;;;;;;9.47;6.70;;;;;;;11.48;100.00;100641.69;5092974;28;20471;-34
2022/10/21 05:03:16;;;;;;;12.30;7.15;;;;;;;11.50;100.00;100642.25;5093299;28;20250;-35
2022/10/21 05:05:41;;;;;;;7.90;7.10;;;;;;;11.40;100.00;100641.25;5093360;28;20439;-35
2022/10/21 05:08:07;;;;;;;8.17;6.40;;;;;;;11.47;100.00;100639.22;5093031;28;20124;-35
2022/10/21 05:10:32;;;;;;;7.67;6.63;;;;;;;11.50;100.00;100647.66;5092913;28;20302;-35
2022/10/21 05:12:58;;;;;;;10.00;6.60;;;;;;;11.40;100.00;100642.06;5092615;28;20392;-35
2022/10/21 05:15:24;;;;;;;11.60;7.72;;;;;;;11.44;100.00;100637.81;5092796;28;20103;-35
2022/10/21 05:17:51;;;;;;;8.25;6.75;;;;;;;11.43;100.00;100644.28;5092448;28;20468;-35
2022/10/21 05:20:16;;;;;;;9.82;7.05;;;;;;;11.47;100.00;100642.75;5092450;28;20476;-35
2022/10/21 05:22:41;;;;;;;7.37;6.53;;;;;;;11.46;100.00;100651.91;5092802;28;20020;-35
2022/10/21 05:25:07;;;;;;;9.60;6.27;;;;;;;11.37;100.00;100631.72;5092800;28;20278;-35
2022/10/21 05:27:32;;;;;;;7.57;6.57;;;;;;;11.25;100.00;100628.22;5093009;28;20036;-35
2022/10/21 05:29:58;;;;;;;11.87;6.50;;;;;;;11.35;100.00;100631.13;5092894;28;20167;-35
2022/10/21 05:32:24;;;;;;;8.07;6.00;;;;;;;11.30;100.00;100633.75;5096885;28;20152;-35
2022/10/21 05:34:49;;;;;;;10.73;5.70;;;;;;;11.29;100.00;100626.69;5096545;28;20388;-34
2022/10/21 05:37:14;;;;;;;8.17;6.00;;;;;;;11.20;100.00;100615.41;5096215;28;20035;-35
2022/10/21 05:39:40;;;;;;;9.20;5.68;;;;;;;11.08;100.00;100612.75;5096680;28;20032;-35
2022/10/21 05:42:05;;;;;;;9.88;6.13;;;;;;;11.05;100.00;100604.28;5096428;28;20377;-35
2022/10/21 05:44:30;;;;;;;7.50;5.13;;;;;;;10.94;100.00;100597.84;5096434;28;20020;-35
2022/10/21 05:46:56;;;;;;;6.13;5.50;;;;;;;11.11;100.00;100606.03;5096607;28;20035;-35
2022/10/21 05:49:21;;;;;;;7.30;5.60;;;;;;;11.11;100.00;100600.63;5096481;28;20567;-35
2022/10/21 05:51:46;;;;;;;19.33;6.63;;;;;;;11.08;100.00;100590.28;5095953;28;20024;-35
2022/10/21 05:54:12;;;;;;;9.40;6.20;;;;;;;11.18;100.00;100605.91;5096906;28;20028;-35
2022/10/21 05:56:37;;;;;;;7.87;5.80;;;;;;;11.20;100.00;100604.59;5095856;28;20120;-35
2022/10/21 05:59:03;;;;;;;10.50;6.50;;;;;;;11.14;100.00;100586.63;5095620;28;20646;-35
2022/10/21 06:01:28;;;;;;;8.68;6.30;;;;;;;11.25;100.00;100601.16;5095666;28;20354;-35
2022/10/21 06:03:53;;;;;;;7.10;5.77;;;;;;;11.23;100.00;100596.00;5095827;28;20028;-35
2022/10/21 06:06:19;;;;;;;7.88;5.82;;;;;;;11.26;100.00;100608.22;5096106;28;20032;-35
2022/10/21 06:08:44;;;;;;;6.30;5.40;;;;;;;11.26;100.00;100605.50;5096067;28;20035;-35
2022/10/21 06:11:12;;;;;;;6.57;4.73;;;;;;;11.26;100.00;100608.22;5096316;28;20036;-35
2022/10/21 06:13:38;;;;;;;5.88;5.30;;;;;;;11.20;100.00;100601.88;5095801;28;20321;-35
2022/10/21 06:16:05;;;;;;;6.45;5.68;;;;;;;11.28;100.00;100589.88;5096179;28;20399;-35
2022/10/21 06:18:30;;;;;;;9.95;6.63;;;;;;;11.19;100.00;100585.88;5095913;28;20314;-35
2022/10/21 06:20:56;;;;;;;7.73;5.70;;;;;;;11.18;100.00;100585.06;5095491;28;20035;-35
2022/10/21 06:23:21;;;;;;;7.10;5.50;;;;;;;11.26;100.00;100594.69;5095515;28;20020;-35
2022/10/21 06:26:14;;;;;;;9.02;6.03;;;;;;;11.30;100.00;100598.56;5095668;28;20051;-35
2022/10/21 06:28:41;;;;;;;8.55;5.55;;;;;;;11.31;100.00;100600.19;5095033;28;20068;-35
2022/10/21 06:31:09;;;;;;;6.82;5.38;;;;;;;11.23;100.00;100593.28;5095278;28;20480;-35
2022/10/21 06:33:35;;;;;;;7.65;5.50;;;;;;;11.28;100.00;100595.28;5095547;28;20024;-35
2022/10/21 06:36:00;;;;;;;7.30;5.57;;;;;;;11.25;100.00;100606.56;5095501;28;20039;-36
2022/10/21 06:38:26;;;;;;;7.57;5.80;;;;;;;11.24;100.00;100607.63;5128363;27;20020;-35
2022/10/21 06:40:52;;;;;;;6.07;5.05;;;;;;;11.24;100.00;100596.81;5095187;28;20031;-35
2022/10/21 06:43:17;;;;;;;;;;;;;;;11.34;100.00;100600.53;5095880;28;20475;-35
2022/10/21 06:45:43;;;;;;;8.70;5.68;;;;;;;11.30;100.00;100596.66;5094943;28;19912;-35
2022/10/21 06:48:09;;;;;;;10.25;6.55;;;;;;;11.40;100.00;100609.56;5095621;28;20044;-35
2022/10/21 06:50:36;;;;;;;9.45;6.03;;;;;;;11.43;100.00;100614.50;5095520;28;20022;-35
2022/10/21 06:53:01;;;;;;;7.15;6.07;;;;;;;11.45;100.00;100630.50;5095502;28;20031;-36
2022/10/21 06:55:27;;;;;;;10.10;6.50;;;;;;;11.46;100.00;100626.72;5095169;28;20036;-35
2022/10/21 06:57:52;;;;;;;13.43;6.73;;;;;;;11.35;100.00;100612.19;5095122;28;20052;-34
2022/10/21 07:00:17;;;;;;;8.67;6.23;;;;;;;11.52;100.00;100639.31;5095025;28;20391;-34
2022/10/21 07:02:43;;;;;;;9.67;5.90;;;;;;;11.53;100.00;100652.59;5095118;28;20316;-35
2022/10/21 07:05:08;;;;;;;10.83;6.67;;;;;;;11.58;100.00;100651.88;5094638;28;20089;-35
2022/10/21 07:07:34;;;;;;;6.00;5.28;;;;;;;11.50;100.00;100633.31;5095471;28;20042;-35
2022/10/21 07:09:59;;;;;;;6.72;5.65;;;;;;;11.65;100.00;100657.16;5095162;28;20151;-35
2022/10/21 07:12:26;;;;;;;5.73;5.13;;;;;;;11.65;100.00;100655.25;5094875;28;20032;-35
2022/10/21 07:14:53;;;;;;;10.63;5.47;;;;;;;11.70;100.00;100663.47;5094757;28;20041;-35
2022/10/21 07:17:18;;;;;;;8.90;5.85;;;;;;;11.71;100.00;100664.28;5094421;28;20487;-34
2022/10/21 07:19:44;;;;;;;9.93;5.57;;;;;;;11.74;100.00;100667.34;5094902;28;20028;-35
2022/10/21 07:22:09;;;;;;;9.27;5.77;;;;;;;11.74;100.00;100653.81;5094413;28;20104;-35
2022/10/21 07:24:35;;;;;;;9.87;5.70;;;;;;;11.84;100.00;100674.88;5094905;28;20036;-35
2022/10/21 07:27:01;;;;;;;9.00;5.05;;;;;;;11.87;100.00;100668.97;5094834;28;20035;-35
2022/10/21 07:29:26;;;;;;;6.78;5.05;;;;;;;11.88;100.00;100658.97;5094204;28;20157;-35
2022/10/21 07:31:52;;;;;;;6.80;4.90;;;;;;;11.88;100.00;100657.06;5094728;28;20020;-35
2022/10/21 07:34:17;;;;;;;7.30;5.15;;;;;;;11.96;100.00;100675.66;5094351;28;20433;-35
2022/10/21 07:36:51;;;;;;;6.25;5.43;;;;;;;12.01;100.00;100672.19;5094092;28;20107;-35
2022/10/21 07:39:19;;;;;;;9.32;5.25;;;;;;;12.06;100.00;100681.25;5094312;28;20024;-35
2022/10/21 07:41:52;;;;;;;7.32;5.43;;;;;;;12.05;100.00;100667.91;5094211;28;20035;-35
2022/10/21 07:44:19;;;;;;;5.88;4.18;;;;;;;12.16;100.00;100677.06;5094473;28;20081;-35
2022/10/21 07:46:46;;;;;;;6.97;4.50;;;;;;;12.09;100.00;100656.34;5093732;28;20031;-34
2022/10/21 07:49:13;;;;;;;8.18;5.10;;;;;;;12.25;100.00;100680.97;5094604;28;20024;-35
2022/10/21 07:51:38;;;;;;;8.73;5.72;;;;;;;12.31;100.00;100685.44;5093966;28;20024;-35
2022/10/21 07:54:04;;;;;;;9.00;4.80;;;;;;;12.32;100.00;100678.94;5093202;28;20476;-35
2022/10/21 07:56:32;;;;;;;9.43;5.23;;;;;;;12.39;100.00;100687.72;5093975;28;20038;-35
2022/10/21 07:59:00;;;;;;;10.55;4.70;;;;;;;12.42;100.00;100691.84;5094703;28;20096;-35
2022/10/21 08:01:25;;;;;;;9.27;5.70;;;;;;;12.44;100.00;100684.28;5094328;28;20357;-35
2022/10/21 08:03:52;;;;;;;6.53;4.55;;;;;;;12.47;100.00;100690.03;5094156;28;20081;-35
2022/10/21 08:06:18;;;;;;;7.63;5.60;;;;;;;12.51;100.00;100693.91;5093826;28;20028;-35
2022/10/21 08:08:44;;;;;;;7.53;5.50;;;;;;;12.54;100.00;100685.28;5094462;28;20514;-35
2022/10/21 08:11:09;;;;;;;9.15;5.45;;;;;;;12.57;100.00;100692.91;5093512;28;20031;-35
2022/10/21 08:13:35;;;;;;;8.23;5.30;;;;;;;12.54;100.00;100684.44;5094020;28;20047;-35
2022/10/21 08:16:03;;;;;;;8.17;5.57;;;;;;;12.61;100.00;100679.69;5093673;28;20266;-35
2022/10/21 08:18:29;;;;;;;8.00;5.53;;;;;;;12.62;100.00;100682.13;5093535;28;20282;-35
2022/10/21 08:20:54;;;;;;;8.30;5.80;;;;;;;12.65;100.00;100685.44;5093612;28;20476;-35
2022/10/21 08:23:22;;;;;;;9.32;5.80;;;;;;;12.65;100.00;100686.25;5094050;28;20103;-35
2022/10/21 08:25:52;;;;;;;9.52;5.30;;;;;;;12.65;100.00;100674.59;5093663;28;20038;-35
2022/10/21 08:28:19;;;;;;;7.78;5.15;;;;;;;12.56;100.00;100653.28;5093217;28;20036;-35
2022/10/21 08:30:45;;;;;;;6.60;5.53;;;;;;;12.63;100.00;100670.19;5093102;28;20463;-35
2022/10/21 08:33:11;;;;;;;8.35;5.68;;;;;;;12.63;100.00;100677.53;5093426;28;20111;-35
2022/10/21 08:35:37;;;;;;;8.43;5.45;;;;;;;12.56;100.00;100668.75;5092743;28;20318;-35
2022/10/21 08:38:03;;;;;;;10.95;5.80;;;;;;;12.63;100.00;100678.34;5093267;28;20031;-35
2022/10/21 08:40:34;;;;;;;9.73;5.20;;;;;;;12.61;100.00;100688.63;5093322;28;20357;-35
2022/10/21 08:43:13;;;;;;;13.52;6.00;;;;;;;12.63;100.00;100689.19;5093554;28;20092;-35
2022/10/21 08:45:46;;;;;;;11.27;6.28;;;;;;;12.65;100.00;100697.09;5094020;28;20039;-35
2022/10/21 08:48:20;;;;;;;9.30;5.95;;;;;;;12.66;100.00;100692.50;5092929;28;20028;-35
2022/10/21 08:50:49;;;;;;;10.60;6.25;;;;;;;12.66;100.00;100693.31;5093047;28;20035;-35
2022/10/21 08:53:22;;;;;;;10.10;6.40;;;;;;;12.67;100.00;100705.81;5093247;28;20029;-35
2022/10/21 08:55:47;;;;;;;11.55;7.05;;;;;;;12.56;100.00;100693.97;5093696;28;20055;-34
2022/10/21 08:58:21;;;;;;;12.60;7.38;;;;;;;12.72;100.00;100719.44;5093322;28;20483;-34
2022/10/21 09:00:51;;;;;;;11.45;6.88;;;;;;;12.63;100.00;100700.03;5093399;28;20422;-35
2022/10/21 09:03:22;;;;;;;7.97;6.25;;;;;;;12.77;100.00;100702.41;5093787;28;20513;-35
2022/10/21 09:06:00;;;;;;;13.85;7.50;;;;;;;12.84;100.00;100706.63;5095306;28;20024;-35
2022/10/21 09:09:05;;;;;;;9.00;6.60;;;;;;;12.88;100.00;100702.34;5097338;28;20460;-35
2022/10/21 09:11:49;;;;;;;9.48;6.65;;;;;;;12.94;100.00;100716.81;5075241;28;20497;-35
2022/10/21 09:14:49;;;;;;;10.65;6.70;;;;;;;12.99;100.00;100714.16;5074528;28;20033;-35
2022/10/21 09:17:35;;;;;;;12.85;6.78;;;;;;;13.09;100.00;100716.19;5075162;28;20035;-35
2022/10/21 09:20:20;;;;;;;9.48;6.25;;;;;;;13.16;100.00;100711.38;5074503;28;20107;-35
2022/10/21 09:22:51;;;;;;;10.38;5.40;;;;;;;13.08;100.00;100690.94;5074594;28;20037;-35
2022/10/21 09:25:16;;;;;;;6.35;4.95;;;;;;;13.34;100.00;100716.56;5074919;28;20032;-35
2022/10/21 09:27:42;;;;;;;11.87;5.87;;;;;;;13.36;100.00;100708.97;5074397;28;20132;-35
2022/10/21 09:30:14;;;;;;;9.03;5.53;;;;;;;13.39;100.00;100707.66;5074196;28;20025;-35
2022/10/21 09:32:48;;;;;;;7.70;4.78;;;;;;;13.36;100.00;100698.09;5074396;28;20357;-35
2022/10/21 09:35:26;;;;;;;8.02;4.40;;;;;;;13.44;100.00;100699.56;5074297;28;20071;-35
2022/10/21 09:38:04;;;;;;;6.45;3.38;;;;;;;13.52;100.00;100704.56;5074726;28;20033;-35
2022/10/21 09:40:30;;;;;;;7.82;3.13;;;;;;;13.54;100.00;100699.69;5074497;28;20044;-35
2022/10/21 09:43:00;;;;;;;7.25;3.42;;;;;;;13.56;100.00;100692.09;5073987;28;20028;-35
2022/10/21 09:45:37;;;;;;;5.22;3.22;;;;;;;13.60;100.00;100687.78;5073899;28;20067;-35
2022/10/21 09:48:14;;;;;;;7.57;3.38;;;;;;;13.63;100.00;100681.84;5088217;28;20044;-35
2022/10/21 09:50:40;;;;;;;7.20;3.70;;;;;;;13.61;100.00;100670.41;5096413;28;20028;-35
2022/10/21 09:53:41;;;;;;;6.10;3.35;;;;;;;13.73;100.00;100685.75;5096418;28;20024;-35
2022/10/21 09:56:14;;;;;;;5.97;3.67;;;;;;;13.71;100.00;100671.59;5073638;28;20040;-35
2022/10/21 09:58:43;;;;;;;6.20;3.40;;;;;;;13.83;100.00;100680.44;5073611;28;20056;-35
2022/10/21 10:01:16;;;;;;;7.18;3.97;;;;;;;13.87;100.00;100684.28;5074083;28;20040;-35
2022/10/21 10:03:45;;;;;;;5.55;3.28;;;;;;;13.96;100.00;100685.47;5074161;28;20423;-35
2022/10/21 10:06:10;;;;;;;5.75;3.40;;;;;;;14.02;100.00;100689.84;5073493;28;20127;-35
2022/10/21 10:08:46;;;;;;;5.50;3.42;;;;;;;14.06;100.00;100682.84;5073407;28;20123;-35
2022/10/21 10:11:17;;;;;;;6.95;3.47;;;;;;;14.10;100.00;100686.69;5073172;28;20114;-35
2022/10/21 10:13:46;;;;;;;5.60;3.78;;;;;;;14.24;100.00;100691.66;5073508;28;20424;-35
2022/10/21 10:16:21;;;;;;;6.50;3.35;;;;;;;14.31;100.00;100697.72;5072588;28;20040;-35
2022/10/21 10:18:47;;;;;;;4.30;2.75;;;;;;;14.36;100.00;100701.31;5073577;28;20040;-35
2022/10/21 10:21:18;;;;;;;6.72;3.05;;;;;;;14.36;100.00;100704.03;5073367;28;20055;-35
2022/10/21 10:23:48;;;;;;;5.38;2.90;;;;;;;14.49;100.00;100712.84;5073690;28;20040;-35
2022/10/21 10:26:36;;;;;;;6.63;2.92;;;;;;;14.55;100.00;100715.38;5073285;28;20044;-35
2022/10/21 10:29:17;;;;;;;6.30;2.65;;;;;;;14.63;100.00;100705.88;5073760;28;20028;-35
2022/10/21 10:31:49;;;;;;;5.05;2.60;;;;;;;14.72;100.00;100704.31;5085109;28;20032;-35
2022/10/21 10:34:24;;;;;;;6.10;3.47;;;;;;;14.81;100.00;100710.09;5095633;28;20031;-35
2022/10/21 10:37:00;;;;;;;7.47;2.75;;;;;;;14.92;100.00;100722.69;5095612;28;20047;-35
2022/10/21 10:39:30;;;;;;;6.82;2.97;;;;;;;15.00;100.00;100716.75;5095791;28;20043;-35
2022/10/21 10:41:56;;;;;;;5.00;2.50;;;;;;;15.10;100.00;100716.81;5095489;28;20069;-35
2022/10/21 10:44:32;;;;;;;4.50;2.38;;;;;;;15.19;100.00;100722.59;5096293;28;20028;-35
2022/10/21 10:47:00;;;;;;;5.18;3.08;;;;;;;15.15;100.00;100705.94;5095515;28;20516;-35
2022/10/21 10:49:32;;;;;;;6.78;2.92;;;;;;;15.22;100.00;100707.59;5095284;28;20434;-35
2022/10/21 10:52:10;;;;;;;7.50;2.85;;;;;;;15.39;100.00;100721.88;5095568;28;20073;-35
2022/10/21 10:54:37;;;;;;;5.63;3.00;;;;;;;15.46;100.00;100723.25;5095513;28;20206;-35
2022/10/21 10:57:20;;;;;;;5.22;2.58;;;;;;;15.52;100.00;100721.38;5095546;28;20027;-35
2022/10/21 10:59:55;;;;;;;5.38;2.92;;;;;;;15.64;100.00;100727.44;5095435;28;20051;-35
2022/10/21 11:02:30;;;;;;;5.25;2.40;;;;;;;15.61;100.00;100706.13;5094971;28;20357;-35
2022/10/21 11:05:10;;;;;;;4.82;2.65;;;;;;;15.80;100.00;100702.94;5095812;28;20479;-35
2022/10/21 11:07:49;;;;;;;4.05;2.88;;;;;;;16.00;100.00;100707.63;5095082;28;20035;-35
2022/10/21 11:10:29;;;;;;;5.25;2.70;;;;;;;16.11;100.00;100710.09;5094995;28;20326;-35
2022/10/21 11:12:55;;;;;;;5.18;2.70;;;;;;;16.15;100.00;100699.44;5093646;28;20031;-35
2022/10/21 11:15:29;;;;;;;5.35;3.15;;;;;;;16.17;100.00;100691.84;5095364;28;20103;-35
2022/10/21 11:18:16;;;;;;;10.65;2.97;;;;;;;16.25;100.00;100694.03;5094815;28;20116;-35
2022/10/21 11:20:50;;;;;;;;;;;;;;;16.38;100.00;100698.91;5095181;28;20103;-35